sensor_id;sensor_type;location;lat;lon;timestamp;P1;durP1;ratioP1;P2;durP2;ratioP2
47167;SDS011;32931;47.778;17.806;2022-12-05T00:01:21;15.25;;;11.02;;
47167;SDS011;32931;47.778;17.806;2022-12-05T00:03:50;17.88;;;11.23;;
47167;SDS011;32931;47.778;17.806;2022-12-05T00:06:18;14.93;;;10.95;;
47167;SDS011;32931;47.778;17.806;2022-12-05T00:08:45;16.17;;;11.32;;
47167;SDS011;32931;47.778;17.806;2022-12-05T00:11:13;20.45;;;11.40;;
47167;SDS011;32931;47.778;17.806;2022-12-05T00:13:41;21.27;;;11.43;;
47167;SDS011;32931;47.778;17.806;2022-12-05T00:16:12;17.77;;;10.43;;
47167;SDS011;32931;47.778;17.806;2022-12-05T00:18:40;19.77;;;10.85;;
47167;SDS011;32931;47.778;17.806;2022-12-05T00:21:10;15.80;;;11.00;;
47167;SDS011;32931;47.778;17.806;2022-12-05T00:23:38;19.70;;;11.40;;
47167;SDS011;32931;47.778;17.806;2022-12-05T00:26:05;16.63;;;10.35;;
47167;SDS011;32931;47.778;17.806;2022-12-05T00:28:32;14.38;;;10.57;;
47167;SDS011;32931;47.778;17.806;2022-12-05T00:31:02;19.27;;;10.75;;
47167;SDS011;32931;47.778;17.806;2022-12-05T00:33:42;16.40;;;10.85;;
47167;SDS011;32931;47.778;17.806;2022-12-05T00:36:14;15.95;;;9.88;;
47167;SDS011;32931;47.778;17.806;2022-12-05T00:38:42;15.65;;;10.55;;
47167;SDS011;32931;47.778;17.806;2022-12-05T00:41:10;16.02;;;10.43;;
47167;SDS011;32931;47.778;17.806;2022-12-05T00:43:38;16.95;;;10.60;;
47167;SDS011;32931;47.778;17.806;2022-12-05T00:46:06;17.73;;;10.05;;
47167;SDS011;32931;47.778;17.806;2022-12-05T00:48:34;17.77;;;10.70;;
47167;SDS011;32931;47.778;17.806;2022-12-05T00:51:01;15.38;;;10.63;;
47167;SDS011;32931;47.778;17.806;2022-12-05T00:53:33;13.55;;;9.73;;
47167;SDS011;32931;47.778;17.806;2022-12-05T00:56:03;16.55;;;10.43;;
47167;SDS011;32931;47.778;17.806;2022-12-05T00:58:31;15.45;;;10.48;;
47167;SDS011;32931;47.778;17.806;2022-12-05T01:01:04;16.83;;;10.75;;
47167;SDS011;32931;47.778;17.806;2022-12-05T01:03:37;17.38;;;10.40;;
47167;SDS011;32931;47.778;17.806;2022-12-05T01:06:04;20.98;;;10.45;;
47167;SDS011;32931;47.778;17.806;2022-12-05T01:08:32;16.33;;;10.55;;
47167;SDS011;32931;47.778;17.806;2022-12-05T01:10:59;18.90;;;10.48;;
47167;SDS011;32931;47.778;17.806;2022-12-05T01:13:26;18.25;;;11.15;;
47167;SDS011;32931;47.778;17.806;2022-12-05T01:15:53;15.43;;;10.57;;
47167;SDS011;32931;47.778;17.806;2022-12-05T01:18:20;17.33;;;10.57;;
47167;SDS011;32931;47.778;17.806;2022-12-05T01:20:46;15.35;;;10.27;;
47167;SDS011;32931;47.778;17.806;2022-12-05T01:23:14;17.88;;;10.95;;
47167;SDS011;32931;47.778;17.806;2022-12-05T01:25:44;15.25;;;10.52;;
47167;SDS011;32931;47.778;17.806;2022-12-05T01:28:13;14.75;;;10.15;;
47167;SDS011;32931;47.778;17.806;2022-12-05T01:30:42;21.08;;;11.00;;
47167;SDS011;32931;47.778;17.806;2022-12-05T01:33:10;14.35;;;9.82;;
47167;SDS011;32931;47.778;17.806;2022-12-05T01:35:36;15.32;;;10.60;;
47167;SDS011;32931;47.778;17.806;2022-12-05T01:38:04;14.75;;;10.85;;
47167;SDS011;32931;47.778;17.806;2022-12-05T01:40:32;15.15;;;10.50;;
47167;SDS011;32931;47.778;17.806;2022-12-05T01:43:00;15.52;;;10.60;;
47167;SDS011;32931;47.778;17.806;2022-12-05T01:45:34;16.35;;;10.98;;
47167;SDS011;32931;47.778;17.806;2022-12-05T01:48:02;20.33;;;11.95;;
47167;SDS011;32931;47.778;17.806;2022-12-05T01:50:32;19.35;;;12.45;;
47167;SDS011;32931;47.778;17.806;2022-12-05T01:52:59;15.18;;;11.45;;
47167;SDS011;32931;47.778;17.806;2022-12-05T01:55:26;18.05;;;11.63;;
47167;SDS011;32931;47.778;17.806;2022-12-05T01:57:52;20.27;;;11.05;;
47167;SDS011;32931;47.778;17.806;2022-12-05T02:00:22;20.15;;;11.30;;
47167;SDS011;32931;47.778;17.806;2022-12-05T02:02:51;21.67;;;11.32;;
47167;SDS011;32931;47.778;17.806;2022-12-05T02:05:29;18.67;;;11.35;;
47167;SDS011;32931;47.778;17.806;2022-12-05T02:07:57;15.32;;;10.52;;
47167;SDS011;32931;47.778;17.806;2022-12-05T02:10:26;15.43;;;11.15;;
47167;SDS011;32931;47.778;17.806;2022-12-05T02:12:55;18.13;;;11.98;;
47167;SDS011;32931;47.778;17.806;2022-12-05T02:34:53;18.20;;;12.30;;
47167;SDS011;32931;47.778;17.806;2022-12-05T02:37:31;19.73;;;12.20;;
47167;SDS011;32931;47.778;17.806;2022-12-05T02:40:29;19.48;;;13.65;;
47167;SDS011;32931;47.778;17.806;2022-12-05T02:43:06;18.95;;;13.70;;
47167;SDS011;32931;47.778;17.806;2022-12-05T02:45:37;21.77;;;14.07;;
47167;SDS011;32931;47.778;17.806;2022-12-05T02:48:06;21.92;;;15.38;;
47167;SDS011;32931;47.778;17.806;2022-12-05T02:50:35;19.38;;;14.20;;
47167;SDS011;32931;47.778;17.806;2022-12-05T02:53:05;19.70;;;14.07;;
47167;SDS011;32931;47.778;17.806;2022-12-05T02:55:35;24.52;;;14.68;;
47167;SDS011;32931;47.778;17.806;2022-12-05T02:58:04;19.17;;;14.23;;
47167;SDS011;32931;47.778;17.806;2022-12-05T03:00:37;24.63;;;15.55;;
47167;SDS011;32931;47.778;17.806;2022-12-05T03:03:09;21.42;;;14.98;;
47167;SDS011;32931;47.778;17.806;2022-12-05T03:05:41;19.95;;;14.50;;
47167;SDS011;32931;47.778;17.806;2022-12-05T03:08:17;19.88;;;15.80;;
47167;SDS011;32931;47.778;17.806;2022-12-05T03:10:48;21.87;;;15.60;;
47167;SDS011;32931;47.778;17.806;2022-12-05T03:13:21;21.98;;;15.63;;
47167;SDS011;32931;47.778;17.806;2022-12-05T03:15:52;22.08;;;15.93;;
47167;SDS011;32931;47.778;17.806;2022-12-05T03:18:32;18.40;;;14.80;;
47167;SDS011;32931;47.778;17.806;2022-12-05T03:21:24;22.10;;;14.88;;
47167;SDS011;32931;47.778;17.806;2022-12-05T03:24:03;24.70;;;15.85;;
47167;SDS011;32931;47.778;17.806;2022-12-05T03:34:47;23.85;;;16.27;;
47167;SDS011;32931;47.778;17.806;2022-12-05T03:37:34;25.35;;;18.17;;
47167;SDS011;32931;47.778;17.806;2022-12-05T03:42:38;27.85;;;18.67;;
47167;SDS011;32931;47.778;17.806;2022-12-05T03:45:11;23.35;;;17.60;;
47167;SDS011;32931;47.778;17.806;2022-12-05T03:47:47;28.27;;;18.25;;
47167;SDS011;32931;47.778;17.806;2022-12-05T03:50:26;29.13;;;18.57;;
47167;SDS011;32931;47.778;17.806;2022-12-05T03:52:55;30.50;;;18.52;;
47167;SDS011;32931;47.778;17.806;2022-12-05T03:55:34;27.17;;;19.17;;
47167;SDS011;32931;47.778;17.806;2022-12-05T03:58:08;24.45;;;18.55;;
47167;SDS011;32931;47.778;17.806;2022-12-05T04:00:39;30.02;;;18.80;;
47167;SDS011;32931;47.778;17.806;2022-12-05T04:05:43;26.15;;;17.40;;
47167;SDS011;32931;47.778;17.806;2022-12-05T04:10:45;25.60;;;16.42;;
47167;SDS011;32931;47.778;17.806;2022-12-05T04:13:17;25.45;;;17.10;;
47167;SDS011;32931;47.778;17.806;2022-12-05T04:16:01;25.70;;;17.30;;
47167;SDS011;32931;47.778;17.806;2022-12-05T04:21:53;25.20;;;17.98;;
47167;SDS011;32931;47.778;17.806;2022-12-05T04:24:25;26.38;;;18.08;;
47167;SDS011;32931;47.778;17.806;2022-12-05T04:30:08;26.48;;;19.45;;
47167;SDS011;32931;47.778;17.806;2022-12-05T04:35:31;29.27;;;20.80;;
47167;SDS011;32931;47.778;17.806;2022-12-05T04:38:09;33.38;;;21.23;;
47167;SDS011;32931;47.778;17.806;2022-12-05T04:41:14;30.38;;;21.55;;
47167;SDS011;32931;47.778;17.806;2022-12-05T04:43:37;32.95;;;21.85;;
47167;SDS011;32931;47.778;17.806;2022-12-05T04:46:06;31.65;;;21.65;;
47167;SDS011;32931;47.778;17.806;2022-12-05T04:48:36;38.05;;;22.73;;
47167;SDS011;32931;47.778;17.806;2022-12-05T04:51:03;30.95;;;22.38;;
47167;SDS011;32931;47.778;17.806;2022-12-05T04:53:32;31.15;;;22.17;;
47167;SDS011;32931;47.778;17.806;2022-12-05T04:56:00;30.08;;;21.45;;
47167;SDS011;32931;47.778;17.806;2022-12-05T04:58:27;30.85;;;21.38;;
47167;SDS011;32931;47.778;17.806;2022-12-05T05:01:02;30.17;;;21.38;;
47167;SDS011;32931;47.778;17.806;2022-12-05T05:03:41;35.83;;;21.90;;
47167;SDS011;32931;47.778;17.806;2022-12-05T05:06:10;31.33;;;22.63;;
47167;SDS011;32931;47.778;17.806;2022-12-05T05:08:44;31.13;;;22.10;;
47167;SDS011;32931;47.778;17.806;2022-12-05T05:11:14;33.78;;;23.80;;
47167;SDS011;32931;47.778;17.806;2022-12-05T05:13:43;31.83;;;23.15;;
47167;SDS011;32931;47.778;17.806;2022-12-05T05:16:12;32.08;;;23.15;;
47167;SDS011;32931;47.778;17.806;2022-12-05T05:18:44;34.00;;;23.67;;
47167;SDS011;32931;47.778;17.806;2022-12-05T05:21:18;34.13;;;24.17;;
47167;SDS011;32931;47.778;17.806;2022-12-05T05:23:50;34.50;;;24.15;;
47167;SDS011;32931;47.778;17.806;2022-12-05T05:26:18;35.70;;;23.08;;
47167;SDS011;32931;47.778;17.806;2022-12-05T05:28:45;34.17;;;22.63;;
47167;SDS011;32931;47.778;17.806;2022-12-05T05:31:11;35.13;;;23.85;;
47167;SDS011;32931;47.778;17.806;2022-12-05T05:33:38;33.17;;;24.23;;
47167;SDS011;32931;47.778;17.806;2022-12-05T05:36:05;38.97;;;24.67;;
47167;SDS011;32931;47.778;17.806;2022-12-05T05:38:37;37.63;;;26.15;;
47167;SDS011;32931;47.778;17.806;2022-12-05T05:41:05;39.53;;;24.90;;
47167;SDS011;32931;47.778;17.806;2022-12-05T05:43:38;37.38;;;25.13;;
47167;SDS011;32931;47.778;17.806;2022-12-05T05:46:05;37.88;;;25.60;;
47167;SDS011;32931;47.778;17.806;2022-12-05T05:48:31;37.85;;;24.98;;
47167;SDS011;32931;47.778;17.806;2022-12-05T05:50:58;38.83;;;25.38;;
47167;SDS011;32931;47.778;17.806;2022-12-05T05:53:24;39.47;;;25.20;;
47167;SDS011;32931;47.778;17.806;2022-12-05T05:55:51;38.85;;;24.67;;
47167;SDS011;32931;47.778;17.806;2022-12-05T05:58:17;38.70;;;25.52;;
47167;SDS011;32931;47.778;17.806;2022-12-05T06:00:43;40.58;;;27.30;;
47167;SDS011;32931;47.778;17.806;2022-12-05T06:03:09;36.70;;;25.55;;
47167;SDS011;32931;47.778;17.806;2022-12-05T06:05:35;40.28;;;26.58;;
47167;SDS011;32931;47.778;17.806;2022-12-05T06:08:01;40.00;;;25.85;;
47167;SDS011;32931;47.778;17.806;2022-12-05T06:10:28;42.25;;;27.20;;
47167;SDS011;32931;47.778;17.806;2022-12-05T06:12:55;37.30;;;25.98;;
47167;SDS011;32931;47.778;17.806;2022-12-05T06:15:22;39.72;;;26.52;;
47167;SDS011;32931;47.778;17.806;2022-12-05T06:17:48;39.83;;;27.02;;
47167;SDS011;32931;47.778;17.806;2022-12-05T06:20:14;47.50;;;28.92;;
47167;SDS011;32931;47.778;17.806;2022-12-05T06:22:41;46.58;;;30.25;;
47167;SDS011;32931;47.778;17.806;2022-12-05T06:25:07;43.55;;;29.08;;
47167;SDS011;32931;47.778;17.806;2022-12-05T06:27:33;43.75;;;29.60;;
47167;SDS011;32931;47.778;17.806;2022-12-05T06:29:59;40.53;;;27.95;;
47167;SDS011;32931;47.778;17.806;2022-12-05T06:32:26;41.97;;;28.02;;
47167;SDS011;32931;47.778;17.806;2022-12-05T06:34:54;45.97;;;28.38;;
47167;SDS011;32931;47.778;17.806;2022-12-05T06:37:21;42.20;;;28.85;;
47167;SDS011;32931;47.778;17.806;2022-12-05T06:39:49;52.10;;;29.88;;
47167;SDS011;32931;47.778;17.806;2022-12-05T06:42:16;44.65;;;29.08;;
47167;SDS011;32931;47.778;17.806;2022-12-05T06:44:42;44.53;;;28.27;;
47167;SDS011;32931;47.778;17.806;2022-12-05T06:47:08;44.42;;;28.38;;
47167;SDS011;32931;47.778;17.806;2022-12-05T06:49:34;49.03;;;28.55;;
47167;SDS011;32931;47.778;17.806;2022-12-05T06:52:00;48.25;;;28.67;;
47167;SDS011;32931;47.778;17.806;2022-12-05T06:54:26;108.53;;;76.75;;
47167;SDS011;32931;47.778;17.806;2022-12-05T06:56:53;42.58;;;27.67;;
47167;SDS011;32931;47.778;17.806;2022-12-05T06:59:19;41.90;;;27.42;;
47167;SDS011;32931;47.778;17.806;2022-12-05T07:01:45;50.20;;;28.05;;
47167;SDS011;32931;47.778;17.806;2022-12-05T07:04:18;44.78;;;28.55;;
47167;SDS011;32931;47.778;17.806;2022-12-05T07:06:48;47.20;;;26.63;;
47167;SDS011;32931;47.778;17.806;2022-12-05T07:09:16;53.08;;;28.08;;
47167;SDS011;32931;47.778;17.806;2022-12-05T07:12:08;49.13;;;28.20;;
47167;SDS011;32931;47.778;17.806;2022-12-05T07:14:34;52.65;;;31.77;;
47167;SDS011;32931;47.778;17.806;2022-12-05T07:17:01;48.17;;;28.52;;
47167;SDS011;32931;47.778;17.806;2022-12-05T07:19:27;57.53;;;29.27;;
47167;SDS011;32931;47.778;17.806;2022-12-05T07:21:53;57.33;;;29.70;;
47167;SDS011;32931;47.778;17.806;2022-12-05T07:24:19;57.22;;;30.35;;
47167;SDS011;32931;47.778;17.806;2022-12-05T07:26:45;52.42;;;28.90;;
47167;SDS011;32931;47.778;17.806;2022-12-05T07:29:11;55.42;;;29.80;;
47167;SDS011;32931;47.778;17.806;2022-12-05T07:31:37;56.40;;;29.73;;
47167;SDS011;32931;47.778;17.806;2022-12-05T07:34:03;53.92;;;30.20;;
47167;SDS011;32931;47.778;17.806;2022-12-05T07:36:30;52.95;;;30.15;;
47167;SDS011;32931;47.778;17.806;2022-12-05T07:38:57;57.38;;;31.63;;
47167;SDS011;32931;47.778;17.806;2022-12-05T07:41:24;56.70;;;32.75;;
47167;SDS011;32931;47.778;17.806;2022-12-05T07:43:53;55.42;;;31.65;;
47167;SDS011;32931;47.778;17.806;2022-12-05T07:46:20;62.47;;;32.75;;
47167;SDS011;32931;47.778;17.806;2022-12-05T07:48:48;56.47;;;32.45;;
47167;SDS011;32931;47.778;17.806;2022-12-05T07:51:15;58.22;;;31.70;;
47167;SDS011;32931;47.778;17.806;2022-12-05T07:53:41;55.95;;;33.72;;
47167;SDS011;32931;47.778;17.806;2022-12-05T07:56:10;57.20;;;31.75;;
47167;SDS011;32931;47.778;17.806;2022-12-05T07:58:45;48.45;;;30.73;;
47167;SDS011;32931;47.778;17.806;2022-12-05T08:01:19;54.03;;;31.02;;
47167;SDS011;32931;47.778;17.806;2022-12-05T08:03:47;64.15;;;33.63;;
47167;SDS011;32931;47.778;17.806;2022-12-05T08:06:15;59.10;;;31.33;;
47167;SDS011;32931;47.778;17.806;2022-12-05T08:08:43;59.38;;;32.75;;
47167;SDS011;32931;47.778;17.806;2022-12-05T08:11:12;58.53;;;33.50;;
47167;SDS011;32931;47.778;17.806;2022-12-05T08:13:39;64.22;;;35.08;;
47167;SDS011;32931;47.778;17.806;2022-12-05T08:16:08;58.28;;;34.42;;
47167;SDS011;32931;47.778;17.806;2022-12-05T08:18:36;61.30;;;35.90;;
47167;SDS011;32931;47.778;17.806;2022-12-05T08:21:04;61.60;;;36.05;;
47167;SDS011;32931;47.778;17.806;2022-12-05T08:23:32;59.55;;;36.80;;
47167;SDS011;32931;47.778;17.806;2022-12-05T08:26:02;58.80;;;35.42;;
47167;SDS011;32931;47.778;17.806;2022-12-05T08:28:33;59.80;;;35.08;;
47167;SDS011;32931;47.778;17.806;2022-12-05T08:31:34;66.00;;;38.28;;
47167;SDS011;32931;47.778;17.806;2022-12-05T08:33:55;63.35;;;36.95;;
47167;SDS011;32931;47.778;17.806;2022-12-05T08:36:22;59.45;;;36.38;;
47167;SDS011;32931;47.778;17.806;2022-12-05T08:38:48;73.70;;;43.05;;
47167;SDS011;32931;47.778;17.806;2022-12-05T08:41:20;123.75;;;80.07;;
47167;SDS011;32931;47.778;17.806;2022-12-05T08:43:46;70.03;;;40.95;;
47167;SDS011;32931;47.778;17.806;2022-12-05T08:46:12;63.55;;;37.10;;
47167;SDS011;32931;47.778;17.806;2022-12-05T08:48:38;63.20;;;37.15;;
47167;SDS011;32931;47.778;17.806;2022-12-05T08:51:05;64.43;;;37.90;;
47167;SDS011;32931;47.778;17.806;2022-12-05T08:53:33;65.32;;;37.13;;
47167;SDS011;32931;47.778;17.806;2022-12-05T08:56:01;59.85;;;36.78;;
47167;SDS011;32931;47.778;17.806;2022-12-05T08:58:28;58.95;;;36.80;;
47167;SDS011;32931;47.778;17.806;2022-12-05T09:01:02;63.60;;;36.45;;
47167;SDS011;32931;47.778;17.806;2022-12-05T09:03:32;54.97;;;35.25;;
47167;SDS011;32931;47.778;17.806;2022-12-05T09:06:12;56.85;;;33.45;;
47167;SDS011;32931;47.778;17.806;2022-12-05T09:08:40;54.15;;;34.03;;
47167;SDS011;32931;47.778;17.806;2022-12-05T09:11:11;61.85;;;36.50;;
47167;SDS011;32931;47.778;17.806;2022-12-05T09:13:42;64.18;;;37.97;;
47167;SDS011;32931;47.778;17.806;2022-12-05T09:16:09;68.50;;;38.03;;
47167;SDS011;32931;47.778;17.806;2022-12-05T09:18:37;62.90;;;36.95;;
47167;SDS011;32931;47.778;17.806;2022-12-05T09:21:07;58.90;;;34.83;;
47167;SDS011;32931;47.778;17.806;2022-12-05T09:23:35;63.08;;;35.83;;
47167;SDS011;32931;47.778;17.806;2022-12-05T09:26:02;61.75;;;37.10;;
47167;SDS011;32931;47.778;17.806;2022-12-05T09:28:31;66.95;;;37.55;;
47167;SDS011;32931;47.778;17.806;2022-12-05T09:30:59;63.20;;;37.25;;
47167;SDS011;32931;47.778;17.806;2022-12-05T09:33:28;64.75;;;38.38;;
47167;SDS011;32931;47.778;17.806;2022-12-05T09:35:56;67.55;;;40.00;;
47167;SDS011;32931;47.778;17.806;2022-12-05T09:38:23;66.63;;;38.30;;
47167;SDS011;32931;47.778;17.806;2022-12-05T09:40:51;67.10;;;37.50;;
47167;SDS011;32931;47.778;17.806;2022-12-05T09:43:34;72.78;;;38.95;;
47167;SDS011;32931;47.778;17.806;2022-12-05T09:46:19;70.35;;;39.90;;
47167;SDS011;32931;47.778;17.806;2022-12-05T09:48:58;63.65;;;37.60;;
47167;SDS011;32931;47.778;17.806;2022-12-05T09:51:26;62.45;;;39.42;;
47167;SDS011;32931;47.778;17.806;2022-12-05T09:53:52;63.30;;;37.45;;
47167;SDS011;32931;47.778;17.806;2022-12-05T09:56:26;62.95;;;38.25;;
47167;SDS011;32931;47.778;17.806;2022-12-05T09:58:55;64.47;;;35.75;;
47167;SDS011;32931;47.778;17.806;2022-12-05T10:01:35;61.55;;;35.13;;
47167;SDS011;32931;47.778;17.806;2022-12-05T10:18:00;53.78;;;33.35;;
47167;SDS011;32931;47.778;17.806;2022-12-05T10:20:34;59.85;;;33.13;;
47167;SDS011;32931;47.778;17.806;2022-12-05T10:23:11;54.72;;;32.38;;
47167;SDS011;32931;47.778;17.806;2022-12-05T10:25:43;64.13;;;35.35;;
47167;SDS011;32931;47.778;17.806;2022-12-05T10:28:30;60.90;;;34.20;;
47167;SDS011;32931;47.778;17.806;2022-12-05T10:31:03;62.92;;;34.25;;
47167;SDS011;32931;47.778;17.806;2022-12-05T10:33:37;56.67;;;33.57;;
47167;SDS011;32931;47.778;17.806;2022-12-05T10:36:11;63.08;;;35.72;;
47167;SDS011;32931;47.778;17.806;2022-12-05T10:38:38;57.13;;;34.00;;
47167;SDS011;32931;47.778;17.806;2022-12-05T10:41:07;58.53;;;34.42;;
47167;SDS011;32931;47.778;17.806;2022-12-05T10:43:35;56.33;;;32.25;;
47167;SDS011;32931;47.778;17.806;2022-12-05T10:46:05;58.83;;;33.05;;
47167;SDS011;32931;47.778;17.806;2022-12-05T10:48:33;53.58;;;31.70;;
47167;SDS011;32931;47.778;17.806;2022-12-05T10:51:01;59.55;;;31.33;;
47167;SDS011;32931;47.778;17.806;2022-12-05T10:53:31;49.53;;;30.25;;
47167;SDS011;32931;47.778;17.806;2022-12-05T10:59:12;52.50;;;31.42;;
47167;SDS011;32931;47.778;17.806;2022-12-05T11:02:11;58.10;;;32.22;;
47167;SDS011;32931;47.778;17.806;2022-12-05T11:04:42;49.60;;;30.98;;
47167;SDS011;32931;47.778;17.806;2022-12-05T11:07:22;51.15;;;30.38;;
47167;SDS011;32931;47.778;17.806;2022-12-05T11:09:55;60.25;;;28.25;;
47167;SDS011;32931;47.778;17.806;2022-12-05T11:17:41;51.83;;;29.85;;
47167;SDS011;32931;47.778;17.806;2022-12-05T11:20:32;54.28;;;31.67;;
47167;SDS011;32931;47.778;17.806;2022-12-05T11:22:58;56.70;;;34.58;;
47167;SDS011;32931;47.778;17.806;2022-12-05T11:25:54;56.22;;;34.03;;
47167;SDS011;32931;47.778;17.806;2022-12-05T11:28:24;54.42;;;34.70;;
47167;SDS011;32931;47.778;17.806;2022-12-05T11:33:36;54.67;;;33.80;;
47167;SDS011;32931;47.778;17.806;2022-12-05T11:36:04;54.65;;;34.67;;
47167;SDS011;32931;47.778;17.806;2022-12-05T11:38:38;49.40;;;32.47;;
47167;SDS011;32931;47.778;17.806;2022-12-05T11:49:02;42.42;;;28.13;;
47167;SDS011;32931;47.778;17.806;2022-12-05T12:00:21;42.75;;;28.67;;
47167;SDS011;32931;47.778;17.806;2022-12-05T12:03:13;39.55;;;28.60;;
47167;SDS011;32931;47.778;17.806;2022-12-05T12:06:12;45.92;;;30.20;;
47167;SDS011;32931;47.778;17.806;2022-12-05T12:11:44;42.70;;;29.13;;
47167;SDS011;32931;47.778;17.806;2022-12-05T12:25:41;47.25;;;32.83;;
47167;SDS011;32931;47.778;17.806;2022-12-05T12:29:06;45.35;;;32.20;;
47167;SDS011;32931;47.778;17.806;2022-12-05T12:40:20;46.90;;;33.25;;
47167;SDS011;32931;47.778;17.806;2022-12-05T12:43:03;50.47;;;34.13;;
47167;SDS011;32931;47.778;17.806;2022-12-05T12:45:41;41.85;;;32.58;;
47167;SDS011;32931;47.778;17.806;2022-12-05T12:51:06;45.15;;;31.60;;
47167;SDS011;32931;47.778;17.806;2022-12-05T12:59:25;50.72;;;33.83;;
47167;SDS011;32931;47.778;17.806;2022-12-05T13:02:20;49.53;;;35.45;;
47167;SDS011;32931;47.778;17.806;2022-12-05T13:05:41;49.58;;;34.28;;
47167;SDS011;32931;47.778;17.806;2022-12-05T13:08:09;49.88;;;33.47;;
47167;SDS011;32931;47.778;17.806;2022-12-05T13:10:44;47.83;;;35.17;;
47167;SDS011;32931;47.778;17.806;2022-12-05T13:13:12;44.47;;;33.38;;
47167;SDS011;32931;47.778;17.806;2022-12-05T13:15:51;43.67;;;33.45;;
47167;SDS011;32931;47.778;17.806;2022-12-05T13:18:22;54.30;;;32.63;;
47167;SDS011;32931;47.778;17.806;2022-12-05T13:20:53;46.35;;;34.63;;
47167;SDS011;32931;47.778;17.806;2022-12-05T13:23:26;38.25;;;31.15;;
47167;SDS011;32931;47.778;17.806;2022-12-05T13:25:57;42.83;;;30.85;;
47167;SDS011;32931;47.778;17.806;2022-12-05T13:30:54;43.45;;;32.47;;
47167;SDS011;32931;47.778;17.806;2022-12-05T13:33:40;42.47;;;32.70;;
47167;SDS011;32931;47.778;17.806;2022-12-05T13:36:10;54.30;;;32.83;;
47167;SDS011;32931;47.778;17.806;2022-12-05T13:38:57;43.28;;;32.33;;
47167;SDS011;32931;47.778;17.806;2022-12-05T13:41:45;39.63;;;31.02;;
47167;SDS011;32931;47.778;17.806;2022-12-05T13:44:43;59.53;;;30.92;;
47167;SDS011;32931;47.778;17.806;2022-12-05T13:50:25;42.78;;;29.08;;
47167;SDS011;32931;47.778;17.806;2022-12-05T13:58:41;42.42;;;29.33;;
47167;SDS011;32931;47.778;17.806;2022-12-05T14:04:00;49.03;;;30.10;;
47167;SDS011;32931;47.778;17.806;2022-12-05T14:17:22;43.10;;;30.60;;
47167;SDS011;32931;47.778;17.806;2022-12-05T14:28:00;42.17;;;28.85;;
47167;SDS011;32931;47.778;17.806;2022-12-05T14:30:47;34.97;;;29.00;;
47167;SDS011;32931;47.778;17.806;2022-12-05T14:33:32;35.00;;;28.42;;
47167;SDS011;32931;47.778;17.806;2022-12-05T14:36:03;36.30;;;28.08;;
47167;SDS011;32931;47.778;17.806;2022-12-05T14:38:32;34.17;;;28.27;;
47167;SDS011;32931;47.778;17.806;2022-12-05T14:41:15;33.47;;;27.02;;
47167;SDS011;32931;47.778;17.806;2022-12-05T14:43:51;37.63;;;28.40;;
47167;SDS011;32931;47.778;17.806;2022-12-05T14:46:23;36.63;;;28.77;;
47167;SDS011;32931;47.778;17.806;2022-12-05T14:48:55;35.78;;;29.42;;
47167;SDS011;32931;47.778;17.806;2022-12-05T14:52:04;42.83;;;27.52;;
47167;SDS011;32931;47.778;17.806;2022-12-05T14:54:20;35.85;;;28.80;;
47167;SDS011;32931;47.778;17.806;2022-12-05T14:56:53;37.05;;;28.85;;
47167;SDS011;32931;47.778;17.806;2022-12-05T15:02:23;36.15;;;27.02;;
47167;SDS011;32931;47.778;17.806;2022-12-05T15:05:00;39.00;;;27.58;;
47167;SDS011;32931;47.778;17.806;2022-12-05T15:07:37;39.63;;;29.17;;
47167;SDS011;32931;47.778;17.806;2022-12-05T15:10:20;33.60;;;27.05;;
47167;SDS011;32931;47.778;17.806;2022-12-05T15:15:34;33.47;;;27.17;;
47167;SDS011;32931;47.778;17.806;2022-12-05T15:20:57;35.40;;;28.23;;
47167;SDS011;32931;47.778;17.806;2022-12-05T15:23:45;40.22;;;31.23;;
47167;SDS011;32931;47.778;17.806;2022-12-05T15:31:53;34.15;;;28.48;;
47167;SDS011;32931;47.778;17.806;2022-12-05T15:36:49;36.40;;;27.73;;
47167;SDS011;32931;47.778;17.806;2022-12-05T15:39:23;35.20;;;28.75;;
47167;SDS011;32931;47.778;17.806;2022-12-05T15:41:54;36.03;;;28.42;;
47167;SDS011;32931;47.778;17.806;2022-12-05T15:44:21;36.83;;;28.52;;
47167;SDS011;32931;47.778;17.806;2022-12-05T15:46:52;36.00;;;27.25;;
47167;SDS011;32931;47.778;17.806;2022-12-05T15:49:21;33.17;;;27.73;;
47167;SDS011;32931;47.778;17.806;2022-12-05T15:51:52;36.08;;;27.88;;
47167;SDS011;32931;47.778;17.806;2022-12-05T15:54:28;35.45;;;27.73;;
47167;SDS011;32931;47.778;17.806;2022-12-05T15:57:03;36.20;;;29.13;;
47167;SDS011;32931;47.778;17.806;2022-12-05T15:59:38;36.03;;;28.85;;
47167;SDS011;32931;47.778;17.806;2022-12-05T16:02:15;35.83;;;27.92;;
47167;SDS011;32931;47.778;17.806;2022-12-05T16:04:51;36.33;;;27.65;;
47167;SDS011;32931;47.778;17.806;2022-12-05T16:07:21;34.80;;;26.17;;
47167;SDS011;32931;47.778;17.806;2022-12-05T16:09:49;37.42;;;26.88;;
47167;SDS011;32931;47.778;17.806;2022-12-05T16:12:37;42.90;;;27.65;;
47167;SDS011;32931;47.778;17.806;2022-12-05T16:15:15;31.58;;;27.15;;
47167;SDS011;32931;47.778;17.806;2022-12-05T16:17:47;32.63;;;27.08;;
47167;SDS011;32931;47.778;17.806;2022-12-05T16:22:46;53.00;;;28.77;;
47167;SDS011;32931;47.778;17.806;2022-12-05T16:25:15;37.65;;;27.52;;
47167;SDS011;32931;47.778;17.806;2022-12-05T16:30:52;39.33;;;30.08;;
47167;SDS011;32931;47.778;17.806;2022-12-05T16:33:23;67.20;;;39.63;;
47167;SDS011;32931;47.778;17.806;2022-12-05T16:35:50;46.45;;;33.40;;
47167;SDS011;32931;47.778;17.806;2022-12-05T16:40:58;89.00;;;57.60;;
47167;SDS011;32931;47.778;17.806;2022-12-05T16:48:37;35.25;;;29.45;;
47167;SDS011;32931;47.778;17.806;2022-12-05T16:51:21;38.60;;;30.08;;
47167;SDS011;32931;47.778;17.806;2022-12-05T16:53:53;39.03;;;28.92;;
47167;SDS011;32931;47.778;17.806;2022-12-05T16:56:24;42.72;;;30.90;;
47167;SDS011;32931;47.778;17.806;2022-12-05T16:58:55;43.70;;;31.98;;
47167;SDS011;32931;47.778;17.806;2022-12-05T17:01:22;46.03;;;27.17;;
47167;SDS011;32931;47.778;17.806;2022-12-05T17:03:50;32.20;;;23.88;;
47167;SDS011;32931;47.778;17.806;2022-12-05T17:06:18;36.22;;;23.77;;
47167;SDS011;32931;47.778;17.806;2022-12-05T17:08:52;42.90;;;23.58;;
47167;SDS011;32931;47.778;17.806;2022-12-05T17:11:22;31.63;;;21.63;;
47167;SDS011;32931;47.778;17.806;2022-12-05T17:13:51;33.25;;;19.95;;
47167;SDS011;32931;47.778;17.806;2022-12-05T17:16:19;28.42;;;19.10;;
47167;SDS011;32931;47.778;17.806;2022-12-05T17:18:46;26.83;;;18.30;;
47167;SDS011;32931;47.778;17.806;2022-12-05T17:21:16;24.75;;;18.48;;
47167;SDS011;32931;47.778;17.806;2022-12-05T17:23:44;30.60;;;18.85;;
47167;SDS011;32931;47.778;17.806;2022-12-05T17:26:12;25.35;;;17.00;;
47167;SDS011;32931;47.778;17.806;2022-12-05T17:28:40;28.67;;;16.65;;
47167;SDS011;32931;47.778;17.806;2022-12-05T17:31:07;26.50;;;16.23;;
47167;SDS011;32931;47.778;17.806;2022-12-05T17:33:36;27.30;;;16.05;;
47167;SDS011;32931;47.778;17.806;2022-12-05T17:36:03;25.08;;;14.45;;